sensor_id;sensor_type;location;lat;lon;timestamp;temperature;humidity
20171;DHT22;10245;51.344;6.620;2023-02-28T00:01:15;1.20;74.70
20171;DHT22;10245;51.344;6.620;2023-02-28T00:03:38;1.20;75.10
20171;DHT22;10245;51.344;6.620;2023-02-28T00:06:03;1.20;75.00
20171;DHT22;10245;51.344;6.620;2023-02-28T00:08:26;1.10;75.20
20171;DHT22;10245;51.344;6.620;2023-02-28T00:10:50;1.20;75.10
20171;DHT22;10245;51.344;6.620;2023-02-28T00:13:14;1.20;75.70
20171;DHT22;10245;51.344;6.620;2023-02-28T00:15:38;1.10;75.70
20171;DHT22;10245;51.344;6.620;2023-02-28T00:18:01;1.00;76.00
20171;DHT22;10245;51.344;6.620;2023-02-28T00:20:25;1.00;76.10
20171;DHT22;10245;51.344;6.620;2023-02-28T00:22:50;1.00;76.30
20171;DHT22;10245;51.344;6.620;2023-02-28T00:25:16;1.00;76.10
20171;DHT22;10245;51.344;6.620;2023-02-28T00:27:41;1.10;76.50
20171;DHT22;10245;51.344;6.620;2023-02-28T00:30:09;1.00;76.00
20171;DHT22;10245;51.344;6.620;2023-02-28T00:32:37;0.90;76.80
20171;DHT22;10245;51.344;6.620;2023-02-28T00:35:01;0.90;76.80
20171;DHT22;10245;51.344;6.620;2023-02-28T00:37:26;1.00;77.30
20171;DHT22;10245;51.344;6.620;2023-02-28T00:39:50;1.00;76.90
20171;DHT22;10245;51.344;6.620;2023-02-28T00:42:14;0.80;76.70
20171;DHT22;10245;51.344;6.620;2023-02-28T00:44:37;0.80;77.00
20171;DHT22;10245;51.344;6.620;2023-02-28T00:47:02;0.80;77.00
20171;DHT22;10245;51.344;6.620;2023-02-28T00:49:26;0.80;76.80
20171;DHT22;10245;51.344;6.620;2023-02-28T00:51:50;0.90;76.80
20171;DHT22;10245;51.344;6.620;2023-02-28T00:54:14;1.00;76.20
20171;DHT22;10245;51.344;6.620;2023-02-28T00:56:37;1.00;76.00
20171;DHT22;10245;51.344;6.620;2023-02-28T00:59:00;1.00;75.80
20171;DHT22;10245;51.344;6.620;2023-02-28T01:01:24;0.90;75.60
20171;DHT22;10245;51.344;6.620;2023-02-28T01:03:49;0.80;75.70
20171;DHT22;10245;51.344;6.620;2023-02-28T01:06:12;0.90;76.30
20171;DHT22;10245;51.344;6.620;2023-02-28T01:08:35;0.80;75.70
20171;DHT22;10245;51.344;6.620;2023-02-28T01:11:07;0.80;75.60
20171;DHT22;10245;51.344;6.620;2023-02-28T01:13:34;0.70;76.10
20171;DHT22;10245;51.344;6.620;2023-02-28T01:15:57;0.60;76.10
20171;DHT22;10245;51.344;6.620;2023-02-28T01:18:21;0.70;76.50
20171;DHT22;10245;51.344;6.620;2023-02-28T01:20:47;0.70;76.90
20171;DHT22;10245;51.344;6.620;2023-02-28T01:23:13;0.60;76.90
20171;DHT22;10245;51.344;6.620;2023-02-28T01:25:37;0.60;77.00
20171;DHT22;10245;51.344;6.620;2023-02-28T01:28:01;0.50;77.20
20171;DHT22;10245;51.344;6.620;2023-02-28T01:30:24;0.50;77.60
20171;DHT22;10245;51.344;6.620;2023-02-28T01:32:47;0.40;78.00
20171;DHT22;10245;51.344;6.620;2023-02-28T01:35:12;0.40;78.40
20171;DHT22;10245;51.344;6.620;2023-02-28T01:37:37;0.40;78.20
20171;DHT22;10245;51.344;6.620;2023-02-28T01:40:00;0.30;78.30
20171;DHT22;10245;51.344;6.620;2023-02-28T01:42:24;0.30;78.50
20171;DHT22;10245;51.344;6.620;2023-02-28T01:45:06;0.30;78.30
20171;DHT22;10245;51.344;6.620;2023-02-28T01:47:42;0.20;78.70
20171;DHT22;10245;51.344;6.620;2023-02-28T01:50:12;0.10;78.70
20171;DHT22;10245;51.344;6.620;2023-02-28T01:52:38;0.10;78.80
20171;DHT22;10245;51.344;6.620;2023-02-28T01:55:04;0.20;78.70
20171;DHT22;10245;51.344;6.620;2023-02-28T01:57:33;0.10;78.70
20171;DHT22;10245;51.344;6.620;2023-02-28T02:00:02;0.20;78.50
20171;DHT22;10245;51.344;6.620;2023-02-28T02:02:33;0.20;78.10
20171;DHT22;10245;51.344;6.620;2023-02-28T02:05:05;0.20;78.20
20171;DHT22;10245;51.344;6.620;2023-02-28T02:07:33;0.20;78.90
20171;DHT22;10245;51.344;6.620;2023-02-28T02:10:03;0.10;78.30
20171;DHT22;10245;51.344;6.620;2023-02-28T02:12:39;0.10;78.40
20171;DHT22;10245;51.344;6.620;2023-02-28T02:15:24;0.10;78.80
20171;DHT22;10245;51.344;6.620;2023-02-28T02:17:52;0.10;78.70
20171;DHT22;10245;51.344;6.620;2023-02-28T02:20:44;0.10;78.90
20171;DHT22;10245;51.344;6.620;2023-02-28T02:23:27;0.10;79.10
20171;DHT22;10245;51.344;6.620;2023-02-28T02:26:10;0.10;79.50
20171;DHT22;10245;51.344;6.620;2023-02-28T02:29:16;0.10;79.10
20171;DHT22;10245;51.344;6.620;2023-02-28T02:32:25;0.00;79.70
20171;DHT22;10245;51.344;6.620;2023-02-28T02:35:00;0.00;79.80
20171;DHT22;10245;51.344;6.620;2023-02-28T02:37:34;0.00;79.70
20171;DHT22;10245;51.344;6.620;2023-02-28T02:40:08;0.00;79.90
20171;DHT22;10245;51.344;6.620;2023-02-28T02:42:40;0.00;80.30
20171;DHT22;10245;51.344;6.620;2023-02-28T02:45:09;0.00;80.50
20171;DHT22;10245;51.344;6.620;2023-02-28T02:47:35;-0.10;80.60
20171;DHT22;10245;51.344;6.620;2023-02-28T02:50:05;-0.10;80.70
20171;DHT22;10245;51.344;6.620;2023-02-28T02:52:34;-0.10;80.70
20171;DHT22;10245;51.344;6.620;2023-02-28T02:55:02;-0.30;80.40
20171;DHT22;10245;51.344;6.620;2023-02-28T02:57:30;-0.40;80.70
20171;DHT22;10245;51.344;6.620;2023-02-28T02:59:57;-0.40;80.70
20171;DHT22;10245;51.344;6.620;2023-02-28T03:02:22;-0.50;81.80
20171;DHT22;10245;51.344;6.620;2023-02-28T03:04:51;-0.50;81.80
20171;DHT22;10245;51.344;6.620;2023-02-28T03:07:17;-0.60;82.20
20171;DHT22;10245;51.344;6.620;2023-02-28T03:09:40;-0.70;82.30
20171;DHT22;10245;51.344;6.620;2023-02-28T03:12:12;-0.70;82.70
20171;DHT22;10245;51.344;6.620;2023-02-28T03:14:43;-0.70;82.80
20171;DHT22;10245;51.344;6.620;2023-02-28T03:17:31;-0.80;83.00
20171;DHT22;10245;51.344;6.620;2023-02-28T03:20:10;-0.90;82.70
20171;DHT22;10245;51.344;6.620;2023-02-28T03:22:51;-0.80;82.80
20171;DHT22;10245;51.344;6.620;2023-02-28T03:25:20;-0.80;83.10
20171;DHT22;10245;51.344;6.620;2023-02-28T03:27:55;-0.80;83.10
20171;DHT22;10245;51.344;6.620;2023-02-28T03:30:27;-0.80;82.70
20171;DHT22;10245;51.344;6.620;2023-02-28T03:32:58;-0.80;82.90
20171;DHT22;10245;51.344;6.620;2023-02-28T03:35:26;-0.90;82.70
20171;DHT22;10245;51.344;6.620;2023-02-28T03:38:03;-0.90;82.30
20171;DHT22;10245;51.344;6.620;2023-02-28T03:40:32;-0.90;82.60
20171;DHT22;10245;51.344;6.620;2023-02-28T03:42:59;-0.90;82.30
20171;DHT22;10245;51.344;6.620;2023-02-28T03:45:26;-0.90;82.60
20171;DHT22;10245;51.344;6.620;2023-02-28T03:47:54;-0.80;81.90
20171;DHT22;10245;51.344;6.620;2023-02-28T03:50:22;-0.70;81.50
20171;DHT22;10245;51.344;6.620;2023-02-28T03:52:49;-0.60;81.60
20171;DHT22;10245;51.344;6.620;2023-02-28T03:55:17;-0.60;80.10
20171;DHT22;10245;51.344;6.620;2023-02-28T03:57:44;-0.70;80.10
20171;DHT22;10245;51.344;6.620;2023-02-28T04:00:16;-0.60;80.50
20171;DHT22;10245;51.344;6.620;2023-02-28T04:02:42;-0.60;79.70
20171;DHT22;10245;51.344;6.620;2023-02-28T04:05:06;-0.50;79.70
20171;DHT22;10245;51.344;6.620;2023-02-28T04:07:30;-0.60;79.40
20171;DHT22;10245;51.344;6.620;2023-02-28T04:09:54;-0.50;79.10
20171;DHT22;10245;51.344;6.620;2023-02-28T04:12:18;-0.50;78.30
20171;DHT22;10245;51.344;6.620;2023-02-28T04:14:44;-0.50;78.30
20171;DHT22;10245;51.344;6.620;2023-02-28T04:17:08;-0.40;77.50
20171;DHT22;10245;51.344;6.620;2023-02-28T04:19:31;-0.40;77.60
20171;DHT22;10245;51.344;6.620;2023-02-28T04:21:54;-0.40;77.30
20171;DHT22;10245;51.344;6.620;2023-02-28T04:24:19;-0.40;77.20
20171;DHT22;10245;51.344;6.620;2023-02-28T04:26:45;-0.40;77.20
20171;DHT22;10245;51.344;6.620;2023-02-28T04:29:12;-0.30;77.50
20171;DHT22;10245;51.344;6.620;2023-02-28T04:31:36;-0.40;77.60
20171;DHT22;10245;51.344;6.620;2023-02-28T04:33:59;-0.40;77.70
20171;DHT22;10245;51.344;6.620;2023-02-28T04:36:23;-0.40;78.00
20171;DHT22;10245;51.344;6.620;2023-02-28T04:38:47;-0.40;77.80
20171;DHT22;10245;51.344;6.620;2023-02-28T04:41:10;-0.40;77.90
20171;DHT22;10245;51.344;6.620;2023-02-28T04:43:33;-0.40;77.30
20171;DHT22;10245;51.344;6.620;2023-02-28T04:46:01;-0.40;77.20
20171;DHT22;10245;51.344;6.620;2023-02-28T04:48:28;-0.50;77.70
20171;DHT22;10245;51.344;6.620;2023-02-28T04:50:52;-0.50;78.20
20171;DHT22;10245;51.344;6.620;2023-02-28T04:53:16;-0.50;78.40
20171;DHT22;10245;51.344;6.620;2023-02-28T04:55:39;-0.50;78.00
20171;DHT22;10245;51.344;6.620;2023-02-28T04:58:02;-0.50;78.20
20171;DHT22;10245;51.344;6.620;2023-02-28T05:00:26;-0.50;77.60
20171;DHT22;10245;51.344;6.620;2023-02-28T05:02:51;-0.50;78.10
20171;DHT22;10245;51.344;6.620;2023-02-28T05:05:14;-0.50;78.00
20171;DHT22;10245;51.344;6.620;2023-02-28T05:07:39;-0.50;77.30
20171;DHT22;10245;51.344;6.620;2023-02-28T05:10:03;-0.60;78.10
20171;DHT22;10245;51.344;6.620;2023-02-28T05:12:27;-0.60;78.20
20171;DHT22;10245;51.344;6.620;2023-02-28T05:14:51;-0.60;77.20
20171;DHT22;10245;51.344;6.620;2023-02-28T05:17:14;-0.50;77.20
20171;DHT22;10245;51.344;6.620;2023-02-28T05:19:39;-0.70;77.50
20171;DHT22;10245;51.344;6.620;2023-02-28T05:22:02;-0.60;77.90
20171;DHT22;10245;51.344;6.620;2023-02-28T05:24:25;-0.60;76.60
20171;DHT22;10245;51.344;6.620;2023-02-28T05:26:50;-0.60;77.20
20171;DHT22;10245;51.344;6.620;2023-02-28T05:29:16;-0.60;77.20
20171;DHT22;10245;51.344;6.620;2023-02-28T05:31:39;-0.60;77.30
20171;DHT22;10245;51.344;6.620;2023-02-28T05:34:03;-0.60;76.30
20171;DHT22;10245;51.344;6.620;2023-02-28T05:36:28;-0.60;76.30
20171;DHT22;10245;51.344;6.620;2023-02-28T05:38:51;-0.60;76.60
20171;DHT22;10245;51.344;6.620;2023-02-28T05:41:16;-0.60;76.40
20171;DHT22;10245;51.344;6.620;2023-02-28T05:43:41;-0.60;76.40
20171;DHT22;10245;51.344;6.620;2023-02-28T05:46:05;-0.60;76.50
20171;DHT22;10245;51.344;6.620;2023-02-28T05:48:30;-0.60;75.90
20171;DHT22;10245;51.344;6.620;2023-02-28T05:50:53;-0.60;76.00
20171;DHT22;10245;51.344;6.620;2023-02-28T05:53:18;-0.60;76.70
20171;DHT22;10245;51.344;6.620;2023-02-28T05:55:41;-0.70;76.80
20171;DHT22;10245;51.344;6.620;2023-02-28T05:58:04;-0.70;76.00
20171;DHT22;10245;51.344;6.620;2023-02-28T06:00:28;-0.70;75.40
20171;DHT22;10245;51.344;6.620;2023-02-28T06:02:51;-0.60;75.70
20171;DHT22;10245;51.344;6.620;2023-02-28T06:05:18;-0.60;75.70
20171;DHT22;10245;51.344;6.620;2023-02-28T06:07:41;-0.70;75.40
20171;DHT22;10245;51.344;6.620;2023-02-28T06:10:08;-0.70;75.80
20171;DHT22;10245;51.344;6.620;2023-02-28T06:12:32;-0.70;75.50
20171;DHT22;10245;51.344;6.620;2023-02-28T06:14:55;-0.60;75.50
20171;DHT22;10245;51.344;6.620;2023-02-28T06:17:19;-0.70;75.40
20171;DHT22;10245;51.344;6.620;2023-02-28T06:19:42;-0.80;75.40
20171;DHT22;10245;51.344;6.620;2023-02-28T06:22:05;-0.70;75.80
20171;DHT22;10245;51.344;6.620;2023-02-28T06:24:29;-0.70;76.00
20171;DHT22;10245;51.344;6.620;2023-02-28T06:26:54;-0.80;75.40
20171;DHT22;10245;51.344;6.620;2023-02-28T06:29:17;-0.70;76.10
20171;DHT22;10245;51.344;6.620;2023-02-28T06:31:41;-0.70;75.80
20171;DHT22;10245;51.344;6.620;2023-02-28T06:34:05;-0.80;75.90
20171;DHT22;10245;51.344;6.620;2023-02-28T06:36:29;-0.80;75.90
20171;DHT22;10245;51.344;6.620;2023-02-28T06:38:52;-0.80;75.70
20171;DHT22;10245;51.344;6.620;2023-02-28T06:41:17;-0.70;76.00
20171;DHT22;10245;51.344;6.620;2023-02-28T06:43:43;-0.70;76.20
20171;DHT22;10245;51.344;6.620;2023-02-28T06:46:08;-0.70;76.90
20171;DHT22;10245;51.344;6.620;2023-02-28T06:48:34;-0.70;76.60
20171;DHT22;10245;51.344;6.620;2023-02-28T06:51:06;-0.80;76.20
20171;DHT22;10245;51.344;6.620;2023-02-28T06:53:31;-0.70;76.40
20171;DHT22;10245;51.344;6.620;2023-02-28T06:55:54;-0.70;76.00
20171;DHT22;10245;51.344;6.620;2023-02-28T06:58:18;-0.70;75.80
20171;DHT22;10245;51.344;6.620;2023-02-28T07:00:44;-0.60;76.50
20171;DHT22;10245;51.344;6.620;2023-02-28T07:03:08;-0.60;76.00
20171;DHT22;10245;51.344;6.620;2023-02-28T07:05:31;-0.70;76.50
20171;DHT22;10245;51.344;6.620;2023-02-28T07:07:54;-0.70;76.40
20171;DHT22;10245;51.344;6.620;2023-02-28T07:10:18;-0.50;75.50
20171;DHT22;10245;51.344;6.620;2023-02-28T07:12:42;-0.50;75.80
20171;DHT22;10245;51.344;6.620;2023-02-28T07:15:07;-0.50;75.40
20171;DHT22;10245;51.344;6.620;2023-02-28T07:17:32;-0.50;75.90
20171;DHT22;10245;51.344;6.620;2023-02-28T07:19:56;-0.50;76.00
20171;DHT22;10245;51.344;6.620;2023-02-28T07:22:19;-0.40;74.40
20171;DHT22;10245;51.344;6.620;2023-02-28T07:24:42;-0.40;73.00
20171;DHT22;10245;51.344;6.620;2023-02-28T07:27:06;-0.30;74.50
20171;DHT22;10245;51.344;6.620;2023-02-28T07:29:29;-0.30;74.20
20171;DHT22;10245;51.344;6.620;2023-02-28T07:31:53;-0.20;75.00
20171;DHT22;10245;51.344;6.620;2023-02-28T07:34:18;-0.20;74.30
20171;DHT22;10245;51.344;6.620;2023-02-28T07:36:41;-0.20;74.40
20171;DHT22;10245;51.344;6.620;2023-02-28T07:39:05;-0.10;74.20
20171;DHT22;10245;51.344;6.620;2023-02-28T07:41:28;0.00;73.80
20171;DHT22;10245;51.344;6.620;2023-02-28T07:43:53;0.00;72.90
20171;DHT22;10245;51.344;6.620;2023-02-28T07:46:17;0.40;71.80
20171;DHT22;10245;51.344;6.620;2023-02-28T07:48:43;0.70;70.60
20171;DHT22;10245;51.344;6.620;2023-02-28T07:51:08;0.80;70.70
20171;DHT22;10245;51.344;6.620;2023-02-28T07:53:32;1.00;70.10
20171;DHT22;10245;51.344;6.620;2023-02-28T07:55:56;1.20;69.40
20171;DHT22;10245;51.344;6.620;2023-02-28T07:58:19;1.30;68.50
20171;DHT22;10245;51.344;6.620;2023-02-28T08:00:43;1.50;67.60
20171;DHT22;10245;51.344;6.620;2023-02-28T08:03:07;1.70;68.20
20171;DHT22;10245;51.344;6.620;2023-02-28T08:05:31;1.50;67.80
20171;DHT22;10245;51.344;6.620;2023-02-28T08:07:56;1.80;66.40
20171;DHT22;10245;51.344;6.620;2023-02-28T08:10:20;1.80;65.00
20171;DHT22;10245;51.344;6.620;2023-02-28T08:12:43;2.00;61.30
20171;DHT22;10245;51.344;6.620;2023-02-28T08:15:08;2.00;60.10
20171;DHT22;10245;51.344;6.620;2023-02-28T08:17:32;2.00;60.10
20171;DHT22;10245;51.344;6.620;2023-02-28T08:19:56;2.00;60.80
20171;DHT22;10245;51.344;6.620;2023-02-28T08:22:19;2.20;59.90
20171;DHT22;10245;51.344;6.620;2023-02-28T08:24:44;2.00;59.20
20171;DHT22;10245;51.344;6.620;2023-02-28T08:27:08;2.20;59.40
20171;DHT22;10245;51.344;6.620;2023-02-28T08:29:31;2.50;61.20
20171;DHT22;10245;51.344;6.620;2023-02-28T08:31:54;2.50;56.20
20171;DHT22;10245;51.344;6.620;2023-02-28T08:34:18;2.60;57.00
20171;DHT22;10245;51.344;6.620;2023-02-28T08:36:42;2.70;57.80
20171;DHT22;10245;51.344;6.620;2023-02-28T08:39:07;2.70;57.80
20171;DHT22;10245;51.344;6.620;2023-02-28T08:41:32;2.90;56.20
20171;DHT22;10245;51.344;6.620;2023-02-28T08:43:55;3.00;57.50
20171;DHT22;10245;51.344;6.620;2023-02-28T08:46:19;3.00;54.20
20171;DHT22;10245;51.344;6.620;2023-02-28T08:48:43;2.90;55.30
20171;DHT22;10245;51.344;6.620;2023-02-28T08:51:08;2.90;54.60
20171;DHT22;10245;51.344;6.620;2023-02-28T08:53:32;3.00;53.10
20171;DHT22;10245;51.344;6.620;2023-02-28T08:55:57;3.20;53.30
20171;DHT22;10245;51.344;6.620;2023-02-28T08:58:22;3.20;54.10
20171;DHT22;10245;51.344;6.620;2023-02-28T09:00:46;3.20;52.10
20171;DHT22;10245;51.344;6.620;2023-02-28T09:03:09;3.40;53.30
20171;DHT22;10245;51.344;6.620;2023-02-28T09:05:32;3.50;50.80
20171;DHT22;10245;51.344;6.620;2023-02-28T09:07:56;3.50;50.40
20171;DHT22;10245;51.344;6.620;2023-02-28T09:10:19;3.60;50.10
20171;DHT22;10245;51.344;6.620;2023-02-28T09:12:42;3.40;50.90
20171;DHT22;10245;51.344;6.620;2023-02-28T09:15:10;3.50;50.20
20171;DHT22;10245;51.344;6.620;2023-02-28T09:17:34;3.80;48.80
20171;DHT22;10245;51.344;6.620;2023-02-28T09:19:57;3.80;49.50
20171;DHT22;10245;51.344;6.620;2023-02-28T09:22:21;3.80;48.70
20171;DHT22;10245;51.344;6.620;2023-02-28T09:24:44;3.90;49.00
20171;DHT22;10245;51.344;6.620;2023-02-28T09:27:07;4.00;49.60
20171;DHT22;10245;51.344;6.620;2023-02-28T09:29:31;4.10;51.20
20171;DHT22;10245;51.344;6.620;2023-02-28T09:31:57;4.10;46.90
20171;DHT22;10245;51.344;6.620;2023-02-28T09:34:20;4.10;48.20
20171;DHT22;10245;51.344;6.620;2023-02-28T09:36:44;4.20;46.40
20171;DHT22;10245;51.344;6.620;2023-02-28T09:39:08;4.00;48.70
20171;DHT22;10245;51.344;6.620;2023-02-28T09:41:37;4.00;48.40
20171;DHT22;10245;51.344;6.620;2023-02-28T09:44:15;4.10;48.80
20171;DHT22;10245;51.344;6.620;2023-02-28T09:46:43;4.30;48.70
20171;DHT22;10245;51.344;6.620;2023-02-28T09:49:12;3.80;50.00
20171;DHT22;10245;51.344;6.620;2023-02-28T09:51:45;4.00;49.80
20171;DHT22;10245;51.344;6.620;2023-02-28T09:54:16;3.60;50.30
20171;DHT22;10245;51.344;6.620;2023-02-28T09:56:42;3.50;50.10
20171;DHT22;10245;51.344;6.620;2023-02-28T09:59:13;3.50;50.50
20171;DHT22;10245;51.344;6.620;2023-02-28T10:01:50;3.50;50.00
20171;DHT22;10245;51.344;6.620;2023-02-28T10:04:32;4.00;50.50
20171;DHT22;10245;51.344;6.620;2023-02-28T10:07:04;3.90;48.90
20171;DHT22;10245;51.344;6.620;2023-02-28T10:09:31;3.90;48.80
20171;DHT22;10245;51.344;6.620;2023-02-28T10:12:00;4.10;48.30
20171;DHT22;10245;51.344;6.620;2023-02-28T10:14:29;4.10;48.00
20171;DHT22;10245;51.344;6.620;2023-02-28T10:16:56;4.40;48.80
20171;DHT22;10245;51.344;6.620;2023-02-28T10:19:27;4.80;50.40
20171;DHT22;10245;51.344;6.620;2023-02-28T10:21:57;4.30;47.10
20171;DHT22;10245;51.344;6.620;2023-02-28T10:24:27;4.40;48.50
20171;DHT22;10245;51.344;6.620;2023-02-28T10:26:55;4.60;47.50
20171;DHT22;10245;51.344;6.620;2023-02-28T10:29:21;4.70;49.70
20171;DHT22;10245;51.344;6.620;2023-02-28T10:31:45;4.90;47.20
20171;DHT22;10245;51.344;6.620;2023-02-28T10:34:12;4.90;47.10
20171;DHT22;10245;51.344;6.620;2023-02-28T10:36:37;4.70;46.90
20171;DHT22;10245;51.344;6.620;2023-02-28T10:39:00;4.80;48.50
20171;DHT22;10245;51.344;6.620;2023-02-28T10:41:29;5.00;47.80
20171;DHT22;10245;51.344;6.620;2023-02-28T10:44:13;5.00;45.90
20171;DHT22;10245;51.344;6.620;2023-02-28T10:46:39;4.60;46.90
20171;DHT22;10245;51.344;6.620;2023-02-28T10:49:05;4.90;44.70
20171;DHT22;10245;51.344;6.620;2023-02-28T10:51:37;5.10;47.20
20171;DHT22;10245;51.344;6.620;2023-02-28T10:54:03;4.90;47.10
20171;DHT22;10245;51.344;6.620;2023-02-28T10:56:27;5.20;45.50
20171;DHT22;10245;51.344;6.620;2023-02-28T10:58:54;5.20;44.20
20171;DHT22;10245;51.344;6.620;2023-02-28T11:01:21;5.00;45.50
20171;DHT22;10245;51.344;6.620;2023-02-28T11:03:46;5.00;45.10
20171;DHT22;10245;51.344;6.620;2023-02-28T11:06:15;5.10;46.10
20171;DHT22;10245;51.344;6.620;2023-02-28T11:08:46;4.90;44.90
20171;DHT22;10245;51.344;6.620;2023-02-28T11:11:11;5.00;44.80
20171;DHT22;10245;51.344;6.620;2023-02-28T11:13:36;5.00;44.70
20171;DHT22;10245;51.344;6.620;2023-02-28T11:16:03;5.10;45.90
20171;DHT22;10245;51.344;6.620;2023-02-28T11:18:30;5.40;44.80
20171;DHT22;10245;51.344;6.620;2023-02-28T11:21:02;5.50;44.40
20171;DHT22;10245;51.344;6.620;2023-02-28T11:23:28;5.40;44.00
20171;DHT22;10245;51.344;6.620;2023-02-28T11:25:56;5.40;43.80
20171;DHT22;10245;51.344;6.620;2023-02-28T11:28:26;5.10;44.90
20171;DHT22;10245;51.344;6.620;2023-02-28T11:31:01;5.10;45.30
20171;DHT22;10245;51.344;6.620;2023-02-28T11:33:29;5.10;44.70
20171;DHT22;10245;51.344;6.620;2023-02-28T11:35:57;5.50;45.10
20171;DHT22;10245;51.344;6.620;2023-02-28T11:38:22;6.00;44.80
20171;DHT22;10245;51.344;6.620;2023-02-28T11:40:51;5.90;43.70
20171;DHT22;10245;51.344;6.620;2023-02-28T11:43:39;5.60;43.40
20171;DHT22;10245;51.344;6.620;2023-02-28T11:46:21;6.00;44.30
20171;DHT22;10245;51.344;6.620;2023-02-28T11:48:57;6.00;44.60
20171;DHT22;10245;51.344;6.620;2023-02-28T11:51:30;5.60;43.80
20171;DHT22;10245;51.344;6.620;2023-02-28T11:54:24;5.80;43.60
20171;DHT22;10245;51.344;6.620;2023-02-28T11:57:03;6.00;45.00
20171;DHT22;10245;51.344;6.620;2023-02-28T11:59:48;6.20;42.60
20171;DHT22;10245;51.344;6.620;2023-02-28T12:02:30;5.90;45.40
20171;DHT22;10245;51.344;6.620;2023-02-28T12:07:53;6.00;42.50
20171;DHT22;10245;51.344;6.620;2023-02-28T12:10:23;6.20;44.40
20171;DHT22;10245;51.344;6.620;2023-02-28T12:12:57;6.00;42.90
20171;DHT22;10245;51.344;6.620;2023-02-28T12:15:48;6.20;44.10
20171;DHT22;10245;51.344;6.620;2023-02-28T12:18:32;6.10;43.70
20171;DHT22;10245;51.344;6.620;2023-02-28T12:21:11;6.50;44.60
20171;DHT22;10245;51.344;6.620;2023-02-28T12:24:11;6.00;45.10
20171;DHT22;10245;51.344;6.620;2023-02-28T12:26:42;6.00;44.80
20171;DHT22;10245;51.344;6.620;2023-02-28T12:29:14;6.20;44.20
20171;DHT22;10245;51.344;6.620;2023-02-28T12:31:45;6.50;43.90
20171;DHT22;10245;51.344;6.620;2023-02-28T12:34:15;6.40;43.10
20171;DHT22;10245;51.344;6.620;2023-02-28T12:36:41;6.10;42.90
20171;DHT22;10245;51.344;6.620;2023-02-28T12:39:10;6.10;43.40
20171;DHT22;10245;51.344;6.620;2023-02-28T12:41:40;6.20;43.80
20171;DHT22;10245;51.344;6.620;2023-02-28T12:44:11;6.00;42.90
20171;DHT22;10245;51.344;6.620;2023-02-28T12:46:40;6.00;43.20
20171;DHT22;10245;51.344;6.620;2023-02-28T12:49:08;5.70;42.80
20171;DHT22;10245;51.344;6.620;2023-02-28T12:51:35;5.80;43.50
20171;DHT22;10245;51.344;6.620;2023-02-28T12:54:04;6.10;42.40
20171;DHT22;10245;51.344;6.620;2023-02-28T12:56:38;6.10;43.60
20171;DHT22;10245;51.344;6.620;2023-02-28T12:59:14;6.30;43.80
20171;DHT22;10245;51.344;6.620;2023-02-28T13:02:18;6.20;42.90
20171;DHT22;10245;51.344;6.620;2023-02-28T13:05:24;6.00;42.90
20171;DHT22;10245;51.344;6.620;2023-02-28T13:08:17;6.00;43.20
20171;DHT22;10245;51.344;6.620;2023-02-28T13:10:48;6.00;43.80
20171;DHT22;10245;51.344;6.620;2023-02-28T13:13:18;6.30;43.90
20171;DHT22;10245;51.344;6.620;2023-02-28T13:16:01;6.00;43.40
20171;DHT22;10245;51.344;6.620;2023-02-28T13:18:30;6.30;43.90
20171;DHT22;10245;51.344;6.620;2023-02-28T13:20:55;6.00;42.90
20171;DHT22;10245;51.344;6.620;2023-02-28T13:23:41;6.20;44.30
20171;DHT22;10245;51.344;6.620;2023-02-28T13:26:20;6.20;43.90
20171;DHT22;10245;51.344;6.620;2023-02-28T13:29:27;5.80;43.20
20171;DHT22;10245;51.344;6.620;2023-02-28T13:32:30;5.80;43.00
20171;DHT22;10245;51.344;6.620;2023-02-28T13:44:08;5.80;44.20
20171;DHT22;10245;51.344;6.620;2023-02-28T13:46:34;5.70;43.60
20171;DHT22;10245;51.344;6.620;2023-02-28T13:49:23;5.70;45.10
20171;DHT22;10245;51.344;6.620;2023-02-28T13:51:49;5.60;44.20
20171;DHT22;10245;51.344;6.620;2023-02-28T13:54:29;5.70;45.30
20171;DHT22;10245;51.344;6.620;2023-02-28T13:57:07;5.70;44.60
20171;DHT22;10245;51.344;6.620;2023-02-28T13:59:45;5.90;44.70
20171;DHT22;10245;51.344;6.620;2023-02-28T14:02:34;6.00;45.80
20171;DHT22;10245;51.344;6.620;2023-02-28T14:05:13;6.10;44.20
20171;DHT22;10245;51.344;6.620;2023-02-28T14:07:42;5.90;44.50
20171;DHT22;10245;51.344;6.620;2023-02-28T14:10:22;5.80;45.50
20171;DHT22;10245;51.344;6.620;2023-02-28T14:12:57;5.70;46.00
20171;DHT22;10245;51.344;6.620;2023-02-28T14:15:49;5.80;44.80
20171;DHT22;10245;51.344;6.620;2023-02-28T14:18:25;5.70;44.30
20171;DHT22;10245;51.344;6.620;2023-02-28T14:20:57;5.80;44.80
20171;DHT22;10245;51.344;6.620;2023-02-28T14:23:38;5.70;45.10
20171;DHT22;10245;51.344;6.620;2023-02-28T14:26:16;5.60;45.00
20171;DHT22;10245;51.344;6.620;2023-02-28T14:28:59;5.70;45.10
20171;DHT22;10245;51.344;6.620;2023-02-28T14:31:34;5.80;45.70
20171;DHT22;10245;51.344;6.620;2023-02-28T14:34:13;6.10;45.90
20171;DHT22;10245;51.344;6.620;2023-02-28T14:36:45;6.00;45.90
20171;DHT22;10245;51.344;6.620;2023-02-28T14:39:13;5.80;45.50
20171;DHT22;10245;51.344;6.620;2023-02-28T14:41:39;6.00;48.30
20171;DHT22;10245;51.344;6.620;2023-02-28T14:44:14;6.50;46.60
20171;DHT22;10245;51.344;6.620;2023-02-28T14:46:40;7.00;45.30
20171;DHT22;10245;51.344;6.620;2023-02-28T14:49:05;6.80;44.30
20171;DHT22;10245;51.344;6.620;2023-02-28T14:51:30;6.50;44.20
20171;DHT22;10245;51.344;6.620;2023-02-28T14:53:59;6.50;46.30
20171;DHT22;10245;51.344;6.620;2023-02-28T14:56:26;6.50;44.80
20171;DHT22;10245;51.344;6.620;2023-02-28T14:58:54;6.40;43.90
20171;DHT22;10245;51.344;6.620;2023-02-28T15:01:20;6.10;45.80
20171;DHT22;10245;51.344;6.620;2023-02-28T15:03:44;6.40;44.70
20171;DHT22;10245;51.344;6.620;2023-02-28T15:06:13;6.10;44.60
20171;DHT22;10245;51.344;6.620;2023-02-28T15:08:39;6.20;46.90
20171;DHT22;10245;51.344;6.620;2023-02-28T15:11:05;6.10;46.00
20171;DHT22;10245;51.344;6.620;2023-02-28T15:13:36;6.50;48.50
20171;DHT22;10245;51.344;6.620;2023-02-28T15:16:03;6.30;48.10
20171;DHT22;10245;51.344;6.620;2023-02-28T15:18:32;6.30;48.40
20171;DHT22;10245;51.344;6.620;2023-02-28T15:21:04;6.10;48.30
20171;DHT22;10245;51.344;6.620;2023-02-28T15:23:30;6.20;48.60
20171;DHT22;10245;51.344;6.620;2023-02-28T15:25:54;6.30;48.40
20171;DHT22;10245;51.344;6.620;2023-02-28T15:28:21;6.50;47.90
20171;DHT22;10245;51.344;6.620;2023-02-28T15:30:57;6.10;47.00
20171;DHT22;10245;51.344;6.620;2023-02-28T15:33:24;6.00;47.30
20171;DHT22;10245;51.344;6.620;2023-02-28T15:35:48;6.00;47.50
20171;DHT22;10245;51.344;6.620;2023-02-28T15:38:16;6.30;47.80
20171;DHT22;10245;51.344;6.620;2023-02-28T15:40:43;6.30;49.50
20171;DHT22;10245;51.344;6.620;2023-02-28T15:43:13;6.30;49.50
20171;DHT22;10245;51.344;6.620;2023-02-28T15:45:44;6.00;48.40
20171;DHT22;10245;51.344;6.620;2023-02-28T15:48:16;6.20;48.90
20171;DHT22;10245;51.344;6.620;2023-02-28T15:50:43;5.90;48.50
20171;DHT22;10245;51.344;6.620;2023-02-28T15:53:13;6.20;48.70
20171;DHT22;10245;51.344;6.620;2023-02-28T15:55:37;6.30;47.70
20171;DHT22;10245;51.344;6.620;2023-02-28T15:58:01;6.10;49.60
20171;DHT22;10245;51.344;6.620;2023-02-28T16:00:28;5.90;48.00
20171;DHT22;10245;51.344;6.620;2023-02-28T16:02:55;6.00;50.20